Time;durP1;ratioP1;P1;durP2;ratioP2;P2;SDS_P1;SDS_P2;PMS_P1;PMS_P2;Temp;Humidity;BMP_temperature;BMP_pressure;BME280_temperature;BME280_humidity;BME280_pressure;Samples;Min_cycle;Max_cycle;Signal;HPM_P1;HPM_P2
2024/01/05 00:01:07;;;;;;;;;;;7.80;99.90;;;;;;8434657;28;19924;-76
2024/01/05 00:10:12;;;;;;;;;;;7.80;99.90;;;;;;8425609;28;20007;-76
2024/01/05 00:14:14;;;;;;;;;;;7.90;99.90;;;;;;8442625;28;19924;-76
2024/01/05 00:18:15;;;;;;;;;;;7.80;99.90;;;;;;8433575;28;20371;-76
2024/01/05 00:22:17;;;;;;;;;;;7.90;99.90;;;;;;8443140;28;19927;-76
2024/01/05 00:26:19;;;;;;;;;;;7.90;99.90;;;;;;8432848;28;20287;-76
2024/01/05 00:30:21;;;;;;;;;;;7.90;99.90;;;;;;8439144;28;19970;-76
2024/01/05 00:34:22;;;;;;;;;;;7.90;99.90;;;;;;8438033;28;20291;-76
2024/01/05 00:38:24;;;;;;;;;;;7.90;99.90;;;;;;8440805;28;19935;-76
2024/01/05 00:42:26;;;;;;;;;;;8.00;99.90;;;;;;8437287;28;20216;-76
2024/01/05 00:46:28;;;;;;;;;;;8.00;99.90;;;;;;8411697;28;19961;-76
2024/01/05 00:50:29;;;;;;;;;;;8.00;99.90;;;;;;8430397;28;19931;-76
2024/01/05 00:54:31;;;;;;;;;;;8.00;99.90;;;;;;8409401;28;19924;-76
2024/01/05 00:58:33;;;;;;;;;;;8.00;99.90;;;;;;8419566;28;20035;-76
2024/01/05 01:02:36;;;;;;;;;;;8.00;99.90;;;;;;8431639;28;19971;-76
2024/01/05 01:06:37;;;;;;;;;;;8.00;99.90;;;;;;8428814;28;19925;-76
2024/01/05 01:10:39;;;;;;;;;;;8.10;99.90;;;;;;8429342;28;19932;-76
2024/01/05 01:14:41;;;;;;;;;;;8.10;99.90;;;;;;8412560;28;19932;-76
2024/01/05 01:18:42;;;;;;;;;;;8.00;99.90;;;;;;8433583;28;19939;-76
2024/01/05 01:22:45;;;;;;;;;;;8.00;99.90;;;;;;8434579;28;19955;-76
2024/01/05 01:26:46;;;;;;;;;;;8.00;99.90;;;;;;8419261;28;19924;-76
2024/01/05 01:30:48;;;;;;;;;;;7.90;99.90;;;;;;8436114;28;20394;-76
2024/01/05 01:34:50;;;;;;;;;;;7.90;99.90;;;;;;8414684;28;19932;-76
2024/01/05 01:38:52;;;;;;;;;;;7.90;99.90;;;;;;8436943;28;20015;-76
2024/01/05 01:42:55;;;;;;;;;;;7.90;99.90;;;;;;8416585;28;19924;-76
2024/01/05 01:46:57;;;;;;;;;;;7.90;99.90;;;;;;8434188;28;20394;-76
2024/01/05 01:50:59;;;;;;;;;;;7.90;99.90;;;;;;8434136;28;19939;-76
2024/01/05 01:55:01;;;;;;;;;;;7.90;99.90;;;;;;8435537;28;19977;-76
2024/01/05 01:59:03;;;;;;;;;;;7.90;99.90;;;;;;8433997;28;19928;-76
2024/01/05 02:03:05;;;;;;;;;;;8.00;99.90;;;;;;8417083;28;19967;-76
2024/01/05 02:07:07;;;;;;;;;;;8.00;99.90;;;;;;8416266;28;20449;-76
2024/01/05 02:11:09;;;;;;;;;;;8.00;99.90;;;;;;8433155;28;19975;-76
2024/01/05 02:15:11;;;;;;;;;;;8.10;99.90;;;;;;8433488;28;20287;-76
2024/01/05 02:19:12;;;;;;;;;;;8.10;99.90;;;;;;8435684;28;19938;-76
2024/01/05 02:23:27;;;;;;;;;;;8.10;99.90;;;;;;8435602;28;19928;-76
2024/01/05 02:27:28;;;;;;;;;;;8.10;99.90;;;;;;8416326;28;19958;-75
2024/01/05 02:31:30;;;;;;;;;;;8.20;99.90;;;;;;8436743;28;19936;-76
2024/01/05 02:35:32;;;;;;;;;;;8.20;99.90;;;;;;8432915;28;20298;-76
2024/01/05 02:39:34;;;;;;;;;;;8.20;99.90;;;;;;8414757;28;19939;-76
2024/01/05 02:43:35;;;;;;;;;;;8.30;99.90;;;;;;8415057;28;20340;-76
2024/01/05 02:47:37;;;;;;;;;;;8.30;99.90;;;;;;8432425;28;19932;-76
2024/01/05 02:51:39;;;;;;;;;;;8.30;99.90;;;;;;8436096;28;19923;-76
2024/01/05 02:55:41;;;;;;;;;;;8.40;99.90;;;;;;8432250;28;20363;-76
2024/01/05 02:59:43;;;;;;;;;;;8.40;99.90;;;;;;8419102;28;20391;-76
2024/01/05 03:03:48;;;;;;;;;;;8.50;99.90;;;;;;8425844;28;19935;-76
2024/01/05 03:07:52;;;;;;;;;;;8.50;99.90;;;;;;8418139;28;19928;-76
2024/01/05 03:11:54;;;;;;;;;;;8.50;99.90;;;;;;8413476;28;20387;-75
2024/01/05 03:15:56;;;;;;;;;;;8.60;99.90;;;;;;8435494;28;19939;-75
2024/01/05 03:19:57;;;;;;;;;;;8.60;99.90;;;;;;8433252;28;19924;-75
2024/01/05 03:23:59;;;;;;;;;;;8.60;99.90;;;;;;8424782;28;19932;-75
2024/01/05 03:28:01;;;;;;;;;;;8.60;99.90;;;;;;8427126;28;19930;-75
2024/01/05 03:32:02;;;;;;;;;;;8.60;99.90;;;;;;8441924;28;19928;-76
2024/01/05 03:36:04;;;;;;;;;;;8.70;99.90;;;;;;8440452;28;20325;-76
2024/01/05 03:40:07;;;;;;;;;;;8.60;99.90;;;;;;8447067;28;19967;-75
2024/01/05 03:44:09;;;;;;;;;;;8.70;99.90;;;;;;8437960;28;20046;-75
2024/01/05 03:48:11;;;;;;;;;;;8.70;99.90;;;;;;8413897;28;19936;-75
2024/01/05 03:52:12;;;;;;;;;;;8.70;99.90;;;;;;8434514;28;20151;-76
2024/01/05 03:56:14;;;;;;;;;;;8.60;99.90;;;;;;8433138;28;19931;-76
2024/01/05 04:00:16;;;;;;;;;;;8.60;99.90;;;;;;8434024;28;21802;-76
2024/01/05 04:04:18;;;;;;;;;;;8.70;99.90;;;;;;8432559;28;20438;-76
2024/01/05 04:08:20;;;;;;;;;;;8.60;99.90;;;;;;8420956;28;19932;-75
2024/01/05 04:12:21;;;;;;;;;;;8.60;99.90;;;;;;8441007;28;20367;-76
2024/01/05 04:16:23;;;;;;;;;;;8.70;99.90;;;;;;8438588;28;19924;-76
2024/01/05 04:20:25;;;;;;;;;;;8.70;99.90;;;;;;8439323;28;19928;-76
2024/01/05 04:24:27;;;;;;;;;;;8.70;99.90;;;;;;8432000;28;19924;-76
2024/01/05 04:28:29;;;;;;;;;;;8.70;99.90;;;;;;8416687;28;19931;-76
2024/01/05 04:32:31;;;;;;;;;;;8.70;99.90;;;;;;8424565;28;19932;-75
2024/01/05 04:36:32;;;;;;;;;;;8.70;99.90;;;;;;8433111;28;19981;-76
2024/01/05 04:40:34;;;;;;;;;;;8.70;99.90;;;;;;8436511;28;19924;-76
2024/01/05 04:44:36;;;;;;;;;;;8.70;99.90;;;;;;8412519;28;19939;-76
2024/01/05 04:48:37;;;;;;;;;;;8.70;99.90;;;;;;8446802;28;19931;-76
2024/01/05 04:52:39;;;;;;;;;;;8.70;99.90;;;;;;8419852;28;19929;-76
2024/01/05 04:56:41;;;;;;;;;;;8.70;99.90;;;;;;8437514;28;19953;-76
2024/01/05 05:00:43;;;;;;;;;;;8.70;99.90;;;;;;8437471;28;19969;-76
2024/01/05 05:04:45;;;;;;;;;;;8.70;99.90;;;;;;8446701;28;19977;-76
2024/01/05 05:08:49;;;;;;;;;;;8.70;99.90;;;;;;8437141;28;20016;-76
2024/01/05 05:12:50;;;;;;;;;;;8.70;99.90;;;;;;8447316;28;19932;-76
2024/01/05 05:16:52;;;;;;;;;;;8.70;99.90;;;;;;8433308;28;19928;-76
2024/01/05 05:20:54;;;;;;;;;;;8.70;99.90;;;;;;8430186;28;19924;-76
2024/01/05 05:24:56;;;;;;;;;;;8.70;99.90;;;;;;8429148;28;19932;-76
2024/01/05 05:28:57;;;;;;;;;;;8.60;99.90;;;;;;8431618;28;19978;-76
2024/01/05 05:33:00;;;;;;;;;;;8.60;99.90;;;;;;8440958;28;20354;-76
2024/01/05 05:37:02;;;;;;;;;;;8.70;99.90;;;;;;8424545;28;19924;-76
2024/01/05 05:41:04;;;;;;;;;;;8.60;99.90;;;;;;8419762;28;20413;-76
2024/01/05 05:45:06;;;;;;;;;;;8.60;99.90;;;;;;8431741;28;19949;-76
2024/01/05 05:49:07;;;;;;;;;;;8.60;99.90;;;;;;8437832;28;20000;-76
2024/01/05 05:53:10;;;;;;;;;;;8.60;99.90;;;;;;8444458;28;19974;-76
2024/01/05 05:57:12;;;;;;;;;;;8.50;99.90;;;;;;8440253;28;19924;-77
2024/01/05 06:01:16;;;;;;;;;;;8.40;99.90;;;;;;8435464;28;19932;-76
2024/01/05 06:05:18;;;;;;;;;;;8.40;99.90;;;;;;8444945;28;19924;-76
2024/01/05 06:09:20;;;;;;;;;;;8.40;99.90;;;;;;8433982;28;20371;-75
2024/01/05 06:13:21;;;;;;;;;;;8.30;99.90;;;;;;8426156;28;19928;-76
2024/01/05 06:17:23;;;;;;;;;;;8.30;99.90;;;;;;8437748;28;19932;-76
2024/01/05 06:21:25;;;;;;;;;;;8.30;99.90;;;;;;8445444;28;20367;-76
2024/01/05 06:25:26;;;;;;;;;;;8.30;99.90;;;;;;8440685;28;20282;-76
2024/01/05 06:29:28;;;;;;;;;;;8.30;99.90;;;;;;8434740;28;20451;-76
2024/01/05 06:33:30;;;;;;;;;;;8.20;99.90;;;;;;8422747;28;19928;-76
2024/01/05 06:37:32;;;;;;;;;;;8.20;99.90;;;;;;8417031;28;19924;-76
2024/01/05 06:41:34;;;;;;;;;;;8.20;99.90;;;;;;8454102;28;19931;-76
2024/01/05 06:45:37;;;;;;;;;;;8.20;99.90;;;;;;8448306;28;20286;-75
2024/01/05 06:49:39;;;;;;;;;;;8.20;99.90;;;;;;8432781;28;19924;-76
2024/01/05 06:53:40;;;;;;;;;;;8.20;99.90;;;;;;8439254;28;19928;-75
2024/01/05 06:57:42;;;;;;;;;;;8.10;99.90;;;;;;8438393;28;19931;-76
2024/01/05 07:01:44;;;;;;;;;;;7.90;99.90;;;;;;8419203;28;19977;-76
2024/01/05 07:05:46;;;;;;;;;;;7.90;99.90;;;;;;8425063;28;19924;-75
2024/01/05 07:09:48;;;;;;;;;;;7.80;99.90;;;;;;8440592;28;19934;-75
2024/01/05 07:13:50;;;;;;;;;;;7.80;99.90;;;;;;8408074;28;20425;-75
2024/01/05 07:17:52;;;;;;;;;;;7.80;99.90;;;;;;8438884;28;19928;-76
2024/01/05 07:21:54;;;;;;;;;;;7.70;99.90;;;;;;8417910;28;19975;-75
2024/01/05 07:25:59;;;;;;;;;;;7.70;99.90;;;;;;8436097;28;19985;-75
2024/01/05 07:30:01;;;;;;;;;;;7.70;99.90;;;;;;8436987;28;19981;-76
2024/01/05 07:34:03;;;;;;;;;;;7.60;99.90;;;;;;8447862;28;19927;-75
2024/01/05 07:38:05;;;;;;;;;;;7.60;99.90;;;;;;8426880;28;19927;-75
2024/01/05 07:42:06;;;;;;;;;;;7.50;99.90;;;;;;8437482;28;20406;-75
2024/01/05 07:46:08;;;;;;;;;;;7.50;99.90;;;;;;8443541;28;19924;-75
2024/01/05 07:50:10;;;;;;;;;;;7.40;99.90;;;;;;8440770;28;20773;-75
2024/01/05 07:54:12;;;;;;;;;;;7.30;99.90;;;;;;8445602;28;19924;-76
2024/01/05 07:58:14;;;;;;;;;;;7.30;99.90;;;;;;8419931;28;20883;-75
2024/01/05 08:02:15;;;;;;;;;;;7.30;99.90;;;;;;8419005;28;19931;-75
2024/01/05 08:06:17;;;;;;;;;;;7.30;99.90;;;;;;8429965;28;19935;-76
2024/01/05 08:10:19;;;;;;;;;;;7.20;99.90;;;;;;8439891;28;19924;-76
2024/01/05 08:14:21;;;;;;;;;;;7.20;99.90;;;;;;8437008;28;19927;-76
2024/01/05 08:18:23;;;;;;;;;;;7.10;99.90;;;;;;8420224;28;19924;-75
2024/01/05 08:22:25;;;;;;;;;;;7.10;99.90;;;;;;8434698;28;19939;-75
2024/01/05 08:26:27;;;;;;;;;;;7.10;99.90;;;;;;8440941;28;20018;-75
2024/01/05 08:30:30;;;;;;;;;;;7.00;99.90;;;;;;8436969;28;19935;-75
2024/01/05 08:34:32;;;;;;;;;;;7.00;99.90;;;;;;8440494;28;20292;-75
2024/01/05 08:48:43;;;;;;;;;;;7.00;99.90;;;;;;8447243;28;19953;-75
2024/01/05 08:52:45;;;;;;;;;;;6.90;99.90;;;;;;8442181;28;20662;-75
2024/01/05 08:56:47;;;;;;;;;;;6.90;99.90;;;;;;8441674;28;21676;-76
2024/01/05 09:00:48;;;;;;;;;;;6.90;99.90;;;;;;8439478;28;19931;-75
2024/01/05 09:04:50;;;;;;;;;;;7.00;99.90;;;;;;8440605;28;20395;-76
2024/01/05 09:08:52;;;;;;;;;;;7.00;99.90;;;;;;8443792;28;19924;-75
2024/01/05 09:12:54;;;;;;;;;;;6.90;99.90;;;;;;8423028;28;19928;-76
2024/01/05 09:16:55;;;;;;;;;;;6.90;99.90;;;;;;8424863;28;20338;-75
2024/01/05 09:20:57;;;;;;;;;;;6.90;99.90;;;;;;8436479;28;20367;-75
2024/01/05 09:24:59;;;;;;;;;;;6.80;99.90;;;;;;8434133;28;20050;-76
2024/01/05 09:29:00;;;;;;;;;;;6.80;99.90;;;;;;8437016;28;20362;-75
2024/01/05 09:33:03;;;;;;;;;;;6.80;99.90;;;;;;8417268;28;20417;-76
2024/01/05 09:37:05;;;;;;;;;;;6.70;99.90;;;;;;8432623;28;19931;-76
2024/01/05 09:41:13;;;;;;;;;;;6.60;99.90;;;;;;8436288;28;20367;-76
2024/01/05 09:45:15;;;;;;;;;;;6.60;99.90;;;;;;8431772;28;19924;-76
2024/01/05 09:49:17;;;;;;;;;;;6.50;99.90;;;;;;8436635;28;19928;-76
2024/01/05 09:53:19;;;;;;;;;;;6.40;99.90;;;;;;8433543;28;19932;-76
2024/01/05 09:57:22;;;;;;;;;;;6.40;99.90;;;;;;8437190;28;20390;-76
2024/01/05 10:01:25;;;;;;;;;;;6.40;99.90;;;;;;8441359;28;20345;-76
2024/01/05 10:05:30;;;;;;;;;;;6.40;99.90;;;;;;8445419;28;19975;-76
2024/01/05 10:09:32;;;;;;;;;;;6.30;99.90;;;;;;8439730;28;19927;-75
2024/01/05 10:13:33;;;;;;;;;;;6.30;99.90;;;;;;8436087;28;19928;-76
2024/01/05 10:17:35;;;;;;;;;;;6.30;99.90;;;;;;8439496;28;19955;-76
2024/01/05 10:21:38;;;;;;;;;;;6.30;99.90;;;;;;8426064;28;20256;-76
2024/01/05 10:25:39;;;;;;;;;;;6.30;99.90;;;;;;8421065;28;19928;-76
2024/01/05 10:29:45;;;;;;;;;;;6.30;99.90;;;;;;8434546;28;19928;-75
2024/01/05 10:33:54;;;;;;;;;;;6.30;99.90;;;;;;8439767;28;19969;-76
2024/01/05 10:38:03;;;;;;;;;;;6.30;99.90;;;;;;8444031;28;19973;-76
2024/01/05 10:42:17;;;;;;;;;;;6.30;99.90;;;;;;8428587;28;19924;-76
2024/01/05 10:46:20;;;;;;;;;;;6.30;99.90;;;;;;8439922;28;19930;-76
2024/01/05 10:50:22;;;;;;;;;;;6.40;99.90;;;;;;8436235;28;19944;-76
2024/01/05 10:54:24;;;;;;;;;;;6.40;99.90;;;;;;8444216;28;20348;-76
2024/01/05 10:58:26;;;;;;;;;;;6.40;99.90;;;;;;8426763;28;19946;-76
2024/01/05 11:02:28;;;;;;;;;;;6.40;99.90;;;;;;8415706;28;19930;-76
2024/01/05 11:06:32;;;;;;;;;;;6.40;99.90;;;;;;8431163;28;19924;-75
2024/01/05 11:10:34;;;;;;;;;;;6.40;99.90;;;;;;8432260;28;19976;-76
2024/01/05 11:14:45;;;;;;;;;;;6.40;99.90;;;;;;8411397;28;19924;-76
2024/01/05 11:18:53;;;;;;;;;;;6.40;99.90;;;;;;8411129;28;20343;-76
2024/01/05 11:22:58;;;;;;;;;;;6.40;99.90;;;;;;8430113;28;20061;-76
2024/01/05 11:27:20;;;;;;;;;;;6.40;99.90;;;;;;8413515;28;20291;-76
2024/01/05 11:31:41;;;;;;;;;;;6.50;99.90;;;;;;8414896;28;19932;-76
2024/01/05 11:35:43;;;;;;;;;;;6.50;99.90;;;;;;8427028;28;20304;-76
2024/01/05 11:39:46;;;;;;;;;;;6.40;99.90;;;;;;8426946;28;19928;-76
2024/01/05 11:43:48;;;;;;;;;;;6.40;99.90;;;;;;8410466;28;19959;-76
2024/01/05 11:47:50;;;;;;;;;;;6.40;99.90;;;;;;8427959;28;19935;-76
2024/01/05 11:51:52;;;;;;;;;;;6.40;99.90;;;;;;8426360;28;19962;-75
2024/01/05 11:55:56;;;;;;;;;;;6.40;99.90;;;;;;8407652;28;20378;-75
2024/01/05 11:59:57;;;;;;;;;;;6.40;99.90;;;;;;8413986;28;19924;-76
2024/01/05 12:03:59;;;;;;;;;;;6.40;99.90;;;;;;8426950;28;19928;-75
2024/01/05 12:08:01;;;;;;;;;;;6.40;99.90;;;;;;8430321;28;19967;-77
2024/01/05 12:12:16;;;;;;;;;;;6.40;99.90;;;;;;8435990;28;19977;-75
2024/01/05 12:16:21;;;;;;;;;;;6.40;99.90;;;;;;8424086;28;19992;-76
2024/01/05 12:20:23;;;;;;;;;;;6.40;99.90;;;;;;8417652;28;19932;-76
2024/01/05 12:24:25;;;;;;;;;;;6.40;99.90;;;;;;8431568;28;19930;-76
2024/01/05 12:28:31;;;;;;;;;;;6.40;99.90;;;;;;8431328;28;19943;-76
2024/01/05 12:32:33;;;;;;;;;;;6.50;99.90;;;;;;8440888;28;19935;-76
2024/01/05 12:36:35;;;;;;;;;;;6.50;99.90;;;;;;8412528;28;19977;-77
2024/01/05 12:40:37;;;;;;;;;;;6.50;99.90;;;;;;8431712;28;19924;-76
2024/01/05 12:44:39;;;;;;;;;;;6.50;99.90;;;;;;8437247;28;19931;-76
2024/01/05 12:48:41;;;;;;;;;;;6.50;99.90;;;;;;8419800;28;19924;-76
2024/01/05 12:52:42;;;;;;;;;;;6.50;99.90;;;;;;8432397;28;20371;-76
2024/01/05 12:56:58;;;;;;;;;;;6.60;99.90;;;;;;8435983;28;19923;-76
2024/01/05 13:01:03;;;;;;;;;;;6.60;99.90;;;;;;8433774;28;19924;-77
2024/01/05 13:05:27;;;;;;;;;;;6.70;99.90;;;;;;8412916;28;20272;-76
2024/01/05 13:09:30;;;;;;;;;;;6.80;99.90;;;;;;8420873;28;19923;-76
2024/01/05 13:13:32;;;;;;;;;;;6.80;99.90;;;;;;8451028;28;19936;-76
2024/01/05 13:17:34;;;;;;;;;;;6.90;99.90;;;;;;8447063;28;20367;-76
2024/01/05 13:21:36;;;;;;;;;;;7.00;99.90;;;;;;8440553;28;20014;-75
2024/01/05 13:25:38;;;;;;;;;;;7.00;99.90;;;;;;8444286;28;19924;-76
2024/01/05 13:29:40;;;;;;;;;;;7.00;99.90;;;;;;8424905;28;19928;-76
2024/01/05 13:33:42;;;;;;;;;;;7.10;99.90;;;;;;8419614;28;19931;-77
2024/01/05 13:37:44;;;;;;;;;;;7.10;99.90;;;;;;8421391;28;19932;-76
2024/01/05 13:41:46;;;;;;;;;;;7.20;99.90;;;;;;8438272;28;19923;-76
2024/01/05 13:45:47;;;;;;;;;;;7.20;99.90;;;;;;8450389;28;19947;-76
2024/01/05 13:49:49;;;;;;;;;;;7.20;99.90;;;;;;8448474;28;19924;-76
2024/01/05 13:53:51;;;;;;;;;;;7.20;99.90;;;;;;8441199;28;19923;-76
2024/01/05 13:57:53;;;;;;;;;;;7.30;99.90;;;;;;8423353;28;20035;-76
2024/01/05 14:01:55;;;;;;;;;;;7.30;99.90;;;;;;8436023;28;19969;-76
2024/01/05 14:05:56;;;;;;;;;;;7.30;99.90;;;;;;8437125;28;20421;-76
2024/01/05 14:10:00;;;;;;;;;;;7.30;99.90;;;;;;8434514;28;19935;-77
2024/01/05 14:14:01;;;;;;;;;;;7.30;99.90;;;;;;8430523;28;19967;-76
2024/01/05 14:18:03;;;;;;;;;;;7.30;99.90;;;;;;8430169;28;19931;-76
2024/01/05 14:22:08;;;;;;;;;;;7.40;99.90;;;;;;8426813;28;20351;-76
2024/01/05 14:26:10;;;;;;;;;;;7.40;99.90;;;;;;8414103;28;19938;-77
2024/01/05 14:30:12;;;;;;;;;;;7.30;99.90;;;;;;8429707;28;20011;-78
2024/01/05 14:34:14;;;;;;;;;;;7.40;99.90;;;;;;8422252;28;19975;-77
2024/01/05 14:38:15;;;;;;;;;;;7.30;99.90;;;;;;8435455;28;20023;-77
2024/01/05 14:42:17;;;;;;;;;;;7.40;99.90;;;;;;8406763;28;19993;-77
2024/01/05 14:46:19;;;;;;;;;;;7.40;99.90;;;;;;8429576;28;20383;-77
2024/01/05 14:50:21;;;;;;;;;;;7.40;99.90;;;;;;8432337;28;19928;-76
2024/01/05 14:54:22;;;;;;;;;;;7.30;99.90;;;;;;8426588;28;19969;-76
2024/01/05 14:58:25;;;;;;;;;;;7.40;99.90;;;;;;8410098;28;19928;-77
2024/01/05 15:02:26;;;;;;;;;;;7.30;99.90;;;;;;8415825;28;19932;-76
2024/01/05 15:06:30;;;;;;;;;;;7.30;99.90;;;;;;8428260;28;21341;-76
2024/01/05 15:10:33;;;;;;;;;;;7.30;99.90;;;;;;8414683;28;20385;-76
2024/01/05 15:14:35;;;;;;;;;;;7.30;99.90;;;;;;8407114;28;20021;-76
2024/01/05 15:18:37;;;;;;;;;;;7.30;99.90;;;;;;8425248;28;19924;-76
2024/01/05 15:22:39;;;;;;;;;;;7.30;99.90;;;;;;8409844;28;19989;-76
2024/01/05 15:26:44;;;;;;;;;;;7.30;99.90;;;;;;8423657;28;19932;-76
2024/01/05 15:30:46;;;;;;;;;;;7.20;99.90;;;;;;8419736;28;19977;-77
2024/01/05 15:34:48;;;;;;;;;;;7.20;99.90;;;;;;8423264;28;19934;-76
2024/01/05 15:38:50;;;;;;;;;;;7.10;99.90;;;;;;8395302;28;19940;-76
2024/01/05 15:42:53;;;;;;;;;;;7.10;99.90;;;;;;8399640;28;19965;-76
2024/01/05 15:46:54;;;;;;;;;;;7.10;99.90;;;;;;8404618;28;19935;-76
2024/01/05 15:50:56;;;;;;;;;;;7.00;99.90;;;;;;8413932;28;20382;-76
2024/01/05 15:54:58;;;;;;;;;;;7.00;99.90;;;;;;8420320;28;19931;-76
2024/01/05 15:59:00;;;;;;;;;;;7.00;99.90;;;;;;8424280;28;19924;-76
2024/01/05 16:03:02;;;;;;;;;;;7.00;99.90;;;;;;8406234;28;19924;-76
2024/01/05 16:07:04;;;;;;;;;;;7.00;99.90;;;;;;8424254;28;20004;-76
2024/01/05 16:11:06;;;;;;;;;;;7.00;99.90;;;;;;8426878;28;19928;-76
2024/01/05 16:15:14;;;;;;;;;;;7.00;99.90;;;;;;8411566;28;19924;-76
2024/01/05 16:19:16;;;;;;;;;;;7.00;99.90;;;;;;8414816;28;19928;-76
2024/01/05 16:23:17;;;;;;;;;;;7.00;99.90;;;;;;8412503;28;20375;-76
2024/01/05 16:27:19;;;;;;;;;;;6.90;99.90;;;;;;8427188;28;19978;-76
2024/01/05 16:31:21;;;;;;;;;;;6.90;99.90;;;;;;8409330;28;19928;-76
2024/01/05 16:35:23;;;;;;;;;;;6.90;99.90;;;;;;8404073;28;19924;-76
2024/01/05 16:39:24;;;;;;;;;;;6.90;99.90;;;;;;8422750;28;20370;-76
2024/01/05 16:43:26;;;;;;;;;;;6.90;99.90;;;;;;8428285;28;19932;-76
2024/01/05 16:47:28;;;;;;;;;;;6.90;99.90;;;;;;8427322;28;19930;-76
2024/01/05 16:51:30;;;;;;;;;;;7.00;99.90;;;;;;8421886;28;19949;-75
2024/01/05 16:55:33;;;;;;;;;;;7.00;99.90;;;;;;8409819;28;19927;-76
2024/01/05 16:59:35;;;;;;;;;;;7.00;99.90;;;;;;8426682;28;19962;-76
2024/01/05 17:03:36;;;;;;;;;;;7.00;99.90;;;;;;8423537;28;20452;-76
2024/01/05 17:07:38;;;;;;;;;;;7.00;99.90;;;;;;8430470;28;19939;-76
2024/01/05 17:11:40;;;;;;;;;;;7.00;99.90;;;;;;8433701;28;20472;-76
2024/01/05 17:15:42;;;;;;;;;;;7.00;99.90;;;;;;8419822;28;19979;-76
2024/01/05 17:19:44;;;;;;;;;;;7.00;99.90;;;;;;8413946;28;19928;-76
2024/01/05 17:23:48;;;;;;;;;;;7.00;99.90;;;;;;8419774;28;19928;-76
2024/01/05 17:27:49;;;;;;;;;;;7.00;99.90;;;;;;8438708;28;19932;-76
2024/01/05 17:31:51;;;;;;;;;;;7.00;99.90;;;;;;8420786;28;19927;-76
2024/01/05 17:35:57;;;;;;;;;;;7.00;99.90;;;;;;8421858;28;19925;-76
2024/01/05 17:39:58;;;;;;;;;;;7.00;99.90;;;;;;8437755;28;19924;-76
2024/01/05 17:44:00;;;;;;;;;;;7.00;99.90;;;;;;8412340;28;19924;-76
2024/01/05 17:48:02;;;;;;;;;;;7.00;99.90;;;;;;8433957;28;20398;-75
2024/01/05 17:52:04;;;;;;;;;;;7.00;99.90;;;;;;8434194;28;20470;-76
2024/01/05 17:56:07;;;;;;;;;;;7.00;99.90;;;;;;8413881;28;19924;-76
2024/01/05 18:00:08;;;;;;;;;;;7.00;99.90;;;;;;8417143;28;19935;-76
2024/01/05 18:04:11;;;;;;;;;;;7.00;99.90;;;;;;8436933;28;20022;-76
2024/01/05 18:08:13;;;;;;;;;;;7.00;99.90;;;;;;8438266;28;19928;-76
2024/01/05 18:12:15;;;;;;;;;;;7.10;99.90;;;;;;8414727;28;19985;-76
2024/01/05 18:16:21;;;;;;;;;;;7.10;99.90;;;;;;8419278;28;19928;-76
2024/01/05 18:20:22;;;;;;;;;;;7.10;99.90;;;;;;8430802;28;19928;-76
2024/01/05 18:24:24;;;;;;;;;;;7.10;99.90;;;;;;8413005;28;20437;-76
2024/01/05 18:28:26;;;;;;;;;;;7.10;99.90;;;;;;8423513;28;19950;-76
2024/01/05 18:32:28;;;;;;;;;;;7.10;99.90;;;;;;8432092;28;19924;-76
2024/01/05 18:36:29;;;;;;;;;;;7.10;99.90;;;;;;8438730;28;19934;-76
2024/01/05 18:40:31;;;;;;;;;;;7.10;99.90;;;;;;8414556;28;20436;-76
2024/01/05 18:44:33;;;;;;;;;;;7.20;99.90;;;;;;8417259;28;19924;-76
2024/01/05 18:48:37;;;;;;;;;;;7.20;99.90;;;;;;8439477;28;19928;-76
2024/01/05 18:52:39;;;;;;;;;;;7.20;99.90;;;;;;8421256;28;20307;-76
2024/01/05 18:56:41;;;;;;;;;;;7.20;99.90;;;;;;8416446;28;19935;-76
2024/01/05 19:00:42;;;;;;;;;;;7.20;99.90;;;;;;8430418;28;19977;-76
2024/01/05 19:04:44;;;;;;;;;;;7.20;99.90;;;;;;8415360;28;19928;-76
2024/01/05 19:08:46;;;;;;;;;;;7.20;99.90;;;;;;8419158;28;19924;-76
2024/01/05 19:27:58;;;;;;;;;;;7.20;99.90;;;;;;8429324;28;20323;-76
2024/01/05 19:31:59;;;;;;;;;;;7.20;99.90;;;;;;8424525;28;19931;-76
2024/01/05 19:36:04;;;;;;;;;;;7.20;99.90;;;;;;8412924;28;19931;-76
2024/01/05 19:40:07;;;;;;;;;;;7.20;99.90;;;;;;8430923;28;20026;-76
2024/01/05 19:44:14;;;;;;;;;;;7.20;99.90;;;;;;8412373;28;20383;-76
2024/01/05 19:48:15;;;;;;;;;;;7.30;99.90;;;;;;8430022;28;19938;-76
2024/01/05 19:52:18;;;;;;;;;;;7.30;99.90;;;;;;8416240;28;19932;-76
2024/01/05 19:56:21;;;;;;;;;;;7.30;99.90;;;;;;8437989;28;20543;-76
2024/01/05 20:00:23;;;;;;;;;;;7.30;99.90;;;;;;8430596;28;19930;-76
2024/01/05 20:04:28;;;;;;;;;;;7.30;99.90;;;;;;8432107;28;19928;-76
2024/01/05 20:08:30;;;;;;;;;;;7.30;99.90;;;;;;8432121;28;19947;-76
2024/01/05 20:12:31;;;;;;;;;;;7.30;99.90;;;;;;8419228;28;20287;-76
2024/01/05 20:16:33;;;;;;;;;;;7.30;99.90;;;;;;8412614;28;19985;-76
2024/01/05 20:20:35;;;;;;;;;;;7.30;99.90;;;;;;8411280;28;20427;-76
2024/01/05 20:24:37;;;;;;;;;;;7.30;99.90;;;;;;8424823;28;19932;-76
2024/01/05 20:28:39;;;;;;;;;;;7.30;99.90;;;;;;8429445;28;19928;-76
2024/01/05 20:32:40;;;;;;;;;;;7.30;99.90;;;;;;8426007;28;19978;-76
2024/01/05 20:36:42;;;;;;;;;;;7.30;99.90;;;;;;8432161;28;19928;-76
2024/01/05 20:40:45;;;;;;;;;;;7.30;99.90;;;;;;8409287;28;19930;-76
2024/01/05 20:44:46;;;;;;;;;;;7.40;99.90;;;;;;8412122;28;20371;-76
2024/01/05 20:48:48;;;;;;;;;;;7.40;99.90;;;;;;8429235;28;19932;-76
2024/01/05 20:52:50;;;;;;;;;;;7.40;99.90;;;;;;8427311;28;19930;-76
2024/01/05 20:56:51;;;;;;;;;;;7.40;99.90;;;;;;8426469;28;19932;-76
2024/01/05 21:00:53;;;;;;;;;;;7.40;99.90;;;;;;8429946;28;19927;-76
2024/01/05 21:04:55;;;;;;;;;;;7.40;99.90;;;;;;8433083;28;19928;-76
2024/01/05 21:08:58;;;;;;;;;;;7.40;99.90;;;;;;8419727;28;19924;-76
2024/01/05 21:13:00;;;;;;;;;;;7.40;99.90;;;;;;8428612;28;19981;-76
2024/01/05 21:17:04;;;;;;;;;;;7.40;99.90;;;;;;8411342;28;19936;-76
2024/01/05 21:21:07;;;;;;;;;;;7.30;99.90;;;;;;8429151;28;19960;-76
2024/01/05 21:25:09;;;;;;;;;;;7.30;99.90;;;;;;8422560;28;19928;-76
2024/01/05 21:29:11;;;;;;;;;;;7.30;99.90;;;;;;8430332;28;19924;-76
2024/01/05 21:33:12;;;;;;;;;;;7.30;99.90;;;;;;8429797;28;19924;-76
2024/01/05 21:37:14;;;;;;;;;;;7.20;99.90;;;;;;8430396;28;20318;-76
2024/01/05 21:41:16;;;;;;;;;;;7.20;99.90;;;;;;8419811;28;19928;-76
2024/01/05 21:45:19;;;;;;;;;;;7.20;99.90;;;;;;8433040;28;22657;-76
2024/01/05 21:49:22;;;;;;;;;;;7.20;99.90;;;;;;8418015;28;19924;-76
2024/01/05 21:53:23;;;;;;;;;;;7.10;99.90;;;;;;8436241;28;20264;-76
2024/01/05 21:57:25;;;;;;;;;;;7.10;99.90;;;;;;8439294;28;20016;-76
2024/01/05 22:01:27;;;;;;;;;;;7.10;99.90;;;;;;8422335;28;19932;-76
2024/01/05 22:05:29;;;;;;;;;;;7.10;99.90;;;;;;8422189;28;19983;-76
2024/01/05 22:09:30;;;;;;;;;;;7.00;99.90;;;;;;8421910;28;19946;-76
2024/01/05 22:13:32;;;;;;;;;;;6.90;99.90;;;;;;8439067;28;19928;-76
2024/01/05 22:17:34;;;;;;;;;;;6.90;99.90;;;;;;8424379;28;19928;-76
2024/01/05 22:21:36;;;;;;;;;;;6.90;99.90;;;;;;8421934;28;19947;-76
2024/01/05 22:25:40;;;;;;;;;;;6.80;99.90;;;;;;8421203;28;19953;-76
2024/01/05 22:29:43;;;;;;;;;;;6.80;99.90;;;;;;8454580;28;20018;-76
2024/01/05 22:38:48;;;;;;;;;;;6.70;99.90;;;;;;8438372;28;19934;-76
2024/01/05 22:42:50;;;;;;;;;;;6.70;99.90;;;;;;8419965;28;20379;-76
2024/01/05 22:46:52;;;;;;;;;;;6.70;99.90;;;;;;8443021;28;19924;-76
2024/01/05 22:50:53;;;;;;;;;;;6.70;99.90;;;;;;8423937;28;19931;-76
2024/01/05 22:54:55;;;;;;;;;;;6.70;99.90;;;;;;8418571;28;20264;-76
2024/01/05 22:58:58;;;;;;;;;;;6.70;99.90;;;;;;8446019;28;19946;-76
2024/01/05 23:03:06;;;;;;;;;;;6.70;99.90;;;;;;8431441;28;19928;-76
2024/01/05 23:07:08;;;;;;;;;;;6.70;99.90;;;;;;8438977;28;19928;-76
2024/01/05 23:11:10;;;;;;;;;;;6.70;99.90;;;;;;8421032;28;19946;-76
2024/01/05 23:15:12;;;;;;;;;;;6.70;99.90;;;;;;8434690;28;19931;-76
2024/01/05 23:19:14;;;;;;;;;;;6.60;99.90;;;;;;8430945;28;19963;-76
2024/01/05 23:23:16;;;;;;;;;;;6.60;99.90;;;;;;8418463;28;19924;-76
2024/01/05 23:27:17;;;;;;;;;;;6.60;99.90;;;;;;8413078;28;20287;-76
2024/01/05 23:31:19;;;;;;;;;;;6.60;99.90;;;;;;8436032;28;19928;-76
2024/01/05 23:35:21;;;;;;;;;;;6.60;99.90;;;;;;8440143;28;19925;-76
2024/01/05 23:39:23;;;;;;;;;;;6.60;99.90;;;;;;8415849;28;20287;-76
2024/01/05 23:43:24;;;;;;;;;;;6.60;99.90;;;;;;8448061;28;19927;-76
2024/01/05 23:47:26;;;;;;;;;;;6.50;99.90;;;;;;8447050;28;19928;-76
2024/01/05 23:51:28;;;;;;;;;;;6.50;99.90;;;;;;8424765;28;19924;-76
